Time;durP1;ratioP1;P1;durP2;ratioP2;P2;SDS_P1;SDS_P2;PMS_P1;PMS_P2;Temp;Humidity;BMP_temperature;BMP_pressure;BME280_temperature;BME280_humidity;BME280_pressure;Samples;Min_cycle;Max_cycle;Signal;HPM_P1;HPM_P2
2022/05/06 00:01:37;;;;;;;13.18;5.90;;;;;;;-144.47;51.82;53332.81;5053099;28;20118;-71
2022/05/06 00:04:04;;;;;;;11.93;5.57;;;;;;;-144.47;51.58;53340.75;5050063;28;20028;-69
2022/05/06 00:06:29;;;;;;;12.45;5.45;;;;;;;-144.47;51.92;53346.72;5052908;28;20727;-69
2022/05/06 00:08:55;;;;;;;13.13;6.55;;;;;;;-144.47;52.39;53322.88;5050667;28;20049;-69
2022/05/06 00:11:21;;;;;;;11.68;5.72;;;;;;;-144.47;52.81;53348.69;5052796;28;20590;-70
2022/05/06 00:13:46;;;;;;;11.43;4.60;;;;;;;-144.47;52.44;53346.72;5052112;28;20052;-72
2022/05/06 00:16:11;;;;;;;10.45;5.10;;;;;;;-144.47;51.89;53338.75;5051159;28;20539;-69
2022/05/06 00:18:37;;;;;;;18.85;5.43;;;;;;;-144.47;51.25;53340.75;5052102;28;20032;-71
2022/05/06 00:21:02;;;;;;;10.30;4.80;;;;;;;-144.47;50.45;53352.66;5042694;28;20395;-70
2022/05/06 00:23:28;;;;;;;9.00;4.38;;;;;;;-144.47;50.12;53336.78;5059023;28;20039;-69
2022/05/06 00:25:53;;;;;;;14.80;5.50;;;;;;;-144.47;50.11;53370.53;5051484;28;20032;-71
2022/05/06 00:28:18;;;;;;;14.32;5.28;;;;;;;-144.47;50.23;53354.66;5049869;28;20753;-72
2022/05/06 00:30:44;;;;;;;11.93;5.30;;;;;;;-144.47;50.38;53326.84;5057443;28;20035;-70
2022/05/06 00:33:09;;;;;;;11.90;4.72;;;;;;;-144.47;50.10;53352.66;5057417;28;20024;-71
2022/05/06 00:35:38;;;;;;;10.98;5.00;;;;;;;-144.47;49.83;53394.38;5051788;28;20021;-70
2022/05/06 00:38:04;;;;;;;13.82;5.72;;;;;;;-144.47;49.93;53390.41;5049682;28;20032;-70
2022/05/06 00:40:29;;;;;;;9.95;4.88;;;;;;;-144.47;50.10;53348.69;5055613;28;20033;-71
2022/05/06 00:42:56;;;;;;;13.63;4.93;;;;;;;-144.47;50.60;53350.69;5038026;28;20025;-69
2022/05/06 00:45:22;;;;;;;9.07;5.10;;;;;;;-144.47;50.50;53348.69;5051895;28;20017;-71
2022/05/06 00:47:48;;;;;;;10.88;5.43;;;;;;;-144.47;51.25;53352.66;5052182;28;20024;-72
2022/05/06 00:50:13;;;;;;;13.23;4.90;;;;;;;-144.47;50.95;53336.78;5051599;28;20056;-72
2022/05/06 00:52:39;;;;;;;14.35;7.10;;;;;;;-144.47;52.03;53305.00;5051275;28;20029;-71
2022/05/06 00:55:04;;;;;;;12.00;5.45;;;;;;;-144.47;51.62;53344.72;5051961;28;20490;-70
2022/05/06 00:57:31;;;;;;;14.10;5.90;;;;;;;-144.47;51.94;53372.53;5051598;28;20017;-69
2022/05/06 01:02:40;;;;;;;16.65;5.72;;;;;;;-144.47;51.79;53348.69;5048534;28;20040;-71
2022/05/06 01:05:09;;;;;;;15.13;5.28;;;;;;;-144.47;52.18;53350.69;5051253;28;20399;-70
2022/05/06 01:07:36;;;;;;;13.82;5.13;;;;;;;-144.47;52.50;53334.78;5050876;28;20021;-72
2022/05/06 01:10:02;;;;;;;9.23;4.90;;;;;;;-144.47;52.88;53354.66;5055369;28;20031;-70
2022/05/06 01:12:27;;;;;;;18.50;5.57;;;;;;;-144.47;54.03;53354.66;5059170;28;20103;-69
2022/05/06 01:14:53;;;;;;;13.63;5.45;;;;;;;-144.47;54.33;53364.59;5051161;28;20117;-71
2022/05/06 01:17:18;;;;;;;13.23;5.10;;;;;;;-144.47;54.58;53354.66;5047257;28;20030;-72
2022/05/06 01:19:43;;;;;;;12.23;5.90;;;;;;;-144.47;54.89;53332.81;5041811;28;20108;-68
2022/05/06 01:22:09;;;;;;;13.68;5.68;;;;;;;-144.47;54.89;53380.47;5037495;28;20104;-73
2022/05/06 01:24:34;;;;;;;11.80;5.60;;;;;;;-144.47;55.09;53368.56;5050238;28;20025;-72
2022/05/06 01:27:06;;;;;;;13.75;5.13;;;;;;;-144.47;55.43;53305.00;5050730;28;20021;-73
2022/05/06 01:29:32;;;;;;;13.43;5.38;;;;;;;-144.47;55.45;53346.72;5051186;28;20028;-70
2022/05/06 01:31:59;;;;;;;10.98;5.05;;;;;;;-144.47;55.30;53348.69;5062143;28;20025;-74
2022/05/06 01:34:28;;;;;;;8.95;5.18;;;;;;;-144.47;54.96;53360.63;5067563;22;20444;-68
2022/05/06 01:36:55;;;;;;;14.18;5.05;;;;;;;-144.47;54.52;53328.81;5063265;28;20060;-70
2022/05/06 01:39:25;;;;;;;10.60;4.43;;;;;;;-144.47;54.63;53402.31;5051461;28;20036;-69
2022/05/06 01:41:53;;;;;;;10.10;5.28;;;;;;;-144.47;54.28;53334.78;5051023;28;20028;-69
2022/05/06 01:44:22;;;;;;;10.98;4.93;;;;;;;-144.47;53.96;53332.81;5047451;28;20070;-67
2022/05/06 01:46:47;;;;;;;10.05;5.43;;;;;;;-144.47;53.29;53344.72;5070603;28;20020;-70
2022/05/06 01:49:15;;;;;;;11.10;4.95;;;;;;;-144.47;53.31;53376.50;5056162;28;20022;-68
2022/05/06 01:51:42;;;;;;;9.63;4.60;;;;;;;-144.47;52.75;53306.97;5069878;28;20024;-70
2022/05/06 01:54:08;;;;;;;9.60;4.93;;;;;;;-144.47;53.08;53352.66;5070292;28;20028;-70
2022/05/06 01:56:33;;;;;;;11.95;5.13;;;;;;;-144.47;53.43;53344.72;5070974;28;20501;-67
2022/05/06 01:58:58;;;;;;;7.65;4.38;;;;;;;-144.47;53.65;53348.69;5069570;28;20086;-71
2022/05/06 02:01:24;;;;;;;10.40;5.07;;;;;;;-144.47;54.02;53324.84;5070266;28;20078;-66
2022/05/06 02:06:33;;;;;;;11.32;5.00;;;;;;;-144.47;55.01;53352.66;5071593;28;20062;-70
2022/05/06 02:08:58;;;;;;;12.93;4.72;;;;;;;-144.47;55.13;53356.63;5052148;28;20568;-68
2022/05/06 02:11:24;;;;;;;14.40;5.25;;;;;;;-144.47;55.61;53348.69;5070358;28;20103;-69
2022/05/06 02:13:49;;;;;;;15.07;5.30;;;;;;;-144.47;55.36;53362.59;5070090;28;20048;-72
2022/05/06 02:16:16;;;;;;;13.13;5.35;;;;;;;-144.47;56.09;53344.72;5070479;28;20024;-70
2022/05/06 02:18:42;;;;;;;16.80;5.88;;;;;;;-144.47;56.05;53368.56;5072986;28;20028;-69
2022/05/06 02:21:07;;;;;;;15.30;5.07;;;;;;;-144.47;57.01;53394.38;5078766;28;20046;-68
2022/05/06 02:23:33;;;;;;;10.43;4.80;;;;;;;-144.47;57.47;53398.34;5067530;28;20029;-68
2022/05/06 02:25:58;;;;;;;12.02;4.85;;;;;;;-144.47;57.44;53400.34;5051574;28;20107;-67
2022/05/06 02:28:24;;;;;;;14.60;6.22;;;;;;;-144.47;57.81;53342.72;5069644;28;20027;-69
2022/05/06 02:33:34;;;;;;;12.60;5.13;;;;;;;-144.47;58.04;53388.41;5069879;28;20036;-70
2022/05/06 02:36:00;;;;;;;14.73;6.43;;;;;;;-144.47;58.20;53376.50;5068834;28;20029;-67
2022/05/06 02:38:26;;;;;;;11.65;5.70;;;;;;;-144.47;58.31;53350.69;5061836;28;20027;-69
2022/05/06 02:40:52;;;;;;;13.55;6.07;;;;;;;-144.47;58.26;53352.66;5065128;28;20395;-70
2022/05/06 02:43:18;;;;;;;23.50;6.00;;;;;;;-144.47;58.17;53324.84;5082831;28;20028;-68
2022/05/06 02:45:43;;;;;;;15.85;5.10;;;;;;;-144.47;58.41;53354.66;5069645;28;20039;-69
2022/05/06 02:48:09;;;;;;;17.10;6.35;;;;;;;-144.47;58.18;53392.41;5064936;28;20020;-69
2022/05/06 02:50:35;;;;;;;13.75;5.65;;;;;;;-144.47;57.75;53346.72;5061044;28;20016;-72
2022/05/06 02:53:01;;;;;;;15.80;5.65;;;;;;;-144.47;58.35;53406.31;5086033;28;20029;-69
2022/05/06 02:55:26;;;;;;;14.68;5.32;;;;;;;-144.47;58.26;53386.44;5069650;28;20024;-67
2022/05/06 02:57:52;;;;;;;9.50;5.07;;;;;;;-144.47;58.83;53386.44;5072772;28;20394;-68
2022/05/06 03:00:17;;;;;;;11.05;5.43;;;;;;;-144.47;58.69;53396.38;5079220;28;20112;-70
2022/05/06 03:02:43;;;;;;;10.50;5.13;;;;;;;-144.47;58.93;53390.41;5069144;28;20036;-69
2022/05/06 03:05:09;;;;;;;10.70;5.00;;;;;;;-144.47;58.80;53380.47;5068762;28;20025;-68
2022/05/06 03:07:35;;;;;;;13.65;5.45;;;;;;;-144.47;58.93;53372.53;5068794;28;20478;-72
2022/05/06 03:10:00;;;;;;;15.68;7.45;;;;;;;-144.47;59.20;53376.50;5051409;28;20074;-69
2022/05/06 03:12:30;;;;;;;13.45;5.32;;;;;;;-144.47;58.73;53382.47;5064880;28;20024;-71
2022/05/06 03:14:57;;;;;;;17.92;5.57;;;;;;;-144.47;59.26;53412.25;5069205;28;20103;-70
2022/05/06 03:17:23;;;;;;;21.05;5.85;;;;;;;-144.47;59.25;53428.16;5068853;28;20024;-66
2022/05/06 03:19:48;;;;;;;15.45;6.38;;;;;;;-144.47;59.10;53406.31;5069003;28;20032;-71
2022/05/06 03:22:16;;;;;;;13.60;6.00;;;;;;;-144.47;59.03;53416.22;5068878;28;20469;-69
2022/05/06 03:24:42;;;;;;;17.20;7.03;;;;;;;-144.47;59.08;53380.47;5067222;28;20502;-67
2022/05/06 03:27:59;;;;;;;13.90;6.65;;;;;;;-144.47;58.78;53350.69;5082846;28;20030;-67
2022/05/06 03:29:56;;;;;;;16.88;6.45;;;;;;;-144.47;59.01;53342.72;5069051;28;20078;-67
2022/05/06 03:32:22;;;;;;;28.25;7.13;;;;;;;-144.47;59.41;53410.28;5069189;28;20032;-69
2022/05/06 03:34:48;;;;;;;17.48;6.32;;;;;;;-144.47;59.27;53396.38;5069752;28;20406;-70
2022/05/06 03:37:13;;;;;;;21.92;6.32;;;;;;;-144.47;58.92;53358.63;5080702;28;20395;-70
2022/05/06 03:39:39;;;;;;;18.92;7.10;;;;;;;-144.47;59.15;53368.56;5053081;28;20475;-73
2022/05/06 03:42:04;;;;;;;16.95;6.60;;;;;;;-144.47;59.18;53360.63;5073126;28;20029;-70
2022/05/06 03:44:29;;;;;;;13.60;6.25;;;;;;;-144.47;59.03;53366.56;5068867;28;20032;-69
2022/05/06 03:46:55;;;;;;;10.55;6.10;;;;;;;-144.47;58.87;53344.72;5080606;28;20017;-68
2022/05/06 03:49:20;;;;;;;14.65;5.68;;;;;;;-144.47;58.63;53370.53;5055249;28;20047;-69
2022/05/06 03:51:46;;;;;;;12.30;5.22;;;;;;;-144.47;58.71;53344.72;5055142;28;20028;-68
2022/05/06 03:54:11;;;;;;;14.32;6.05;;;;;;;-144.47;58.26;53372.53;5073200;28;20024;-66
2022/05/06 03:56:36;;;;;;;12.60;5.50;;;;;;;-144.47;58.41;53340.75;5072935;28;20047;-69
2022/05/06 03:59:02;;;;;;;15.48;5.38;;;;;;;-144.47;57.99;53348.69;5072728;28;20039;-70
2022/05/06 04:01:27;;;;;;;16.23;5.78;;;;;;;-144.47;57.68;53348.69;5059436;28;20469;-71
2022/05/06 04:03:54;;;;;;;12.20;5.95;;;;;;;-144.47;58.21;53384.44;5072912;28;20047;-69
2022/05/06 04:06:20;;;;;;;10.00;4.90;;;;;;;-144.47;58.27;53388.41;5059265;28;20067;-68
2022/05/06 04:08:45;;;;;;;25.05;6.00;;;;;;;-144.47;58.87;53382.47;5072587;28;20459;-68
2022/05/06 04:11:10;;;;;;;13.48;5.03;;;;;;;-144.47;59.05;53368.56;5086272;28;20028;-69
2022/05/06 04:13:36;;;;;;;18.25;6.10;;;;;;;-144.47;58.78;53382.47;5072799;28;20099;-66
2022/05/06 04:16:02;;;;;;;12.02;5.65;;;;;;;-144.47;57.96;53396.38;5072358;28;20024;-68
2022/05/06 04:18:28;;;;;;;11.98;5.43;;;;;;;-144.47;58.31;53364.59;5072611;28;20035;-68
2022/05/06 04:23:38;;;;;;;11.32;6.20;;;;;;;-144.47;57.28;53380.47;5066437;28;20103;-71
2022/05/06 04:26:06;;;;;;;12.98;5.68;;;;;;;-144.47;56.86;53390.41;5072347;28;20028;-72
2022/05/06 04:28:32;;;;;;;13.52;5.72;;;;;;;-144.47;56.43;53348.69;5071692;28;20075;-69
2022/05/06 04:30:58;;;;;;;12.57;5.30;;;;;;;-144.47;56.82;53412.25;5072228;28;20088;-72
2022/05/06 04:33:27;;;;;;;15.48;5.57;;;;;;;-144.47;56.71;53416.22;5075145;28;20127;-68
2022/05/06 04:35:54;;;;;;;9.40;5.47;;;;;;;-144.47;56.93;53338.75;5060484;28;20033;-72
2022/05/06 04:38:20;;;;;;;12.70;5.30;;;;;;;-144.47;56.49;53360.63;5058773;28;20025;-72
2022/05/06 04:40:47;;;;;;;10.32;5.30;;;;;;;-144.47;56.93;53380.47;5048138;28;20025;-71
2022/05/06 04:43:12;;;;;;;10.95;5.93;;;;;;;-144.47;56.88;53352.66;5074540;28;20595;-69
2022/05/06 04:45:38;;;;;;;12.75;6.78;;;;;;;-144.47;57.22;53360.63;5082259;28;20034;-69
2022/05/06 04:48:05;;;;;;;13.00;7.40;;;;;;;-144.47;57.42;53390.41;5085128;28;20086;-67
2022/05/06 04:50:31;;;;;;;13.00;6.07;;;;;;;-144.47;57.73;53378.50;5070889;28;20051;-71
2022/05/06 04:52:56;;;;;;;15.32;6.30;;;;;;;-144.47;58.17;53372.53;5071595;28;20082;-71
2022/05/06 04:55:21;;;;;;;13.50;5.90;;;;;;;-144.47;57.98;53388.41;5072037;28;20032;-69
2022/05/06 04:57:47;;;;;;;15.23;6.65;;;;;;;-144.47;57.82;53358.63;5067364;28;20029;-69
2022/05/06 05:00:13;;;;;;;11.95;6.30;;;;;;;-144.47;58.07;53366.56;5053420;28;20486;-68
2022/05/06 05:02:38;;;;;;;15.30;5.82;;;;;;;-144.47;58.28;53400.34;5087660;28;20038;-74
2022/05/06 05:05:04;;;;;;;12.65;5.88;;;;;;;-144.47;57.83;53362.59;5081385;28;20096;-69
2022/05/06 05:07:29;;;;;;;14.93;6.38;;;;;;;-144.47;57.96;53358.63;5071028;28;20170;-70
2022/05/06 05:09:55;;;;;;;13.50;5.63;;;;;;;-144.47;57.22;53364.59;5064166;28;20020;-67
2022/05/06 05:12:20;;;;;;;11.07;5.65;;;;;;;-144.47;57.00;53360.63;5053015;28;20702;-67
2022/05/06 05:14:45;;;;;;;14.10;6.35;;;;;;;-144.47;56.49;53378.50;5071335;28;20039;-68
2022/05/06 05:17:14;;;;;;;35.60;7.15;;;;;;;-144.47;56.77;53360.63;5054704;28;20114;-67
2022/05/06 05:19:39;;;;;;;17.10;7.23;;;;;;;-144.47;55.50;53358.63;5083488;28;20103;-68
2022/05/06 05:22:04;;;;;;;18.08;6.45;;;;;;;-144.47;55.37;53348.69;5065058;28;20956;-70
2022/05/06 05:24:30;;;;;;;16.90;6.40;;;;;;;-144.47;55.42;53350.69;5063120;28;20028;-68
2022/05/06 05:26:57;;;;;;;17.10;6.22;;;;;;;-144.47;55.64;53346.72;5068921;28;20021;-70
2022/05/06 05:29:23;;;;;;;13.68;6.93;;;;;;;-144.47;55.93;53362.59;5070862;28;20070;-68
2022/05/06 05:31:49;;;;;;;11.35;6.40;;;;;;;-144.47;55.96;53360.63;5070417;28;20415;-69
2022/05/06 05:34:15;;;;;;;19.15;7.07;;;;;;;-144.47;55.74;53384.44;5071019;28;20040;-67
2022/05/06 05:36:40;;;;;;;11.07;5.32;;;;;;;-144.47;55.65;53350.69;5084382;28;20032;-68
2022/05/06 05:39:06;;;;;;;17.98;7.05;;;;;;;-144.47;55.70;53340.75;5071198;28;20040;-68
2022/05/06 05:41:32;;;;;;;14.60;6.75;;;;;;;-144.47;55.97;53376.50;5070683;28;20103;-68
2022/05/06 05:49:26;;;;;;;13.35;5.82;;;;;;;-144.47;54.65;53344.72;5060093;28;20032;-68
2022/05/06 05:51:52;;;;;;;15.52;6.25;;;;;;;-144.47;54.00;53376.50;5054082;28;20040;-69
2022/05/06 05:54:17;;;;;;;14.15;6.07;;;;;;;-144.47;53.80;53352.66;5083825;28;20032;-69
2022/05/06 05:56:42;;;;;;;14.98;5.88;;;;;;;-144.47;53.29;53340.75;5070102;28;20155;-69
2022/05/06 05:59:08;;;;;;;16.10;6.07;;;;;;;-144.47;53.34;53384.44;5069893;28;20387;-67
2022/05/06 06:01:33;;;;;;;13.82;5.97;;;;;;;-144.47;53.43;53360.63;5077936;28;20156;-73
2022/05/06 06:03:58;;;;;;;18.52;6.90;;;;;;;-144.47;53.56;53360.63;5076655;28;20092;-66
2022/05/06 06:06:24;;;;;;;20.08;6.43;;;;;;;-144.47;53.46;53332.81;5070056;28;20028;-66
2022/05/06 06:08:49;;;;;;;15.57;6.65;;;;;;;-144.47;53.64;53332.81;5051843;28;20392;-68
2022/05/06 06:11:14;;;;;;;21.20;7.22;;;;;;;-144.47;53.73;53322.88;5077395;28;20399;-68
2022/05/06 06:13:40;;;;;;;22.23;7.28;;;;;;;-144.47;53.58;53338.75;5076884;28;20106;-69
2022/05/06 06:16:05;;;;;;;12.77;6.38;;;;;;;-144.47;53.66;53336.78;5069934;28;20505;-70
2022/05/06 06:18:31;;;;;;;16.20;6.63;;;;;;;-144.47;53.52;53392.41;5070450;28;20092;-68
2022/05/06 06:20:56;;;;;;;24.33;6.72;;;;;;;-144.47;53.59;53350.69;5074384;28;20051;-69
2022/05/06 06:23:23;;;;;;;16.75;6.72;;;;;;;-144.47;53.53;53372.53;5066313;28;20048;-67
2022/05/06 06:25:48;;;;;;;16.50;6.60;;;;;;;-144.47;53.47;53332.81;5070260;28;20226;-68
2022/05/06 06:28:14;;;;;;;16.90;7.03;;;;;;;-144.47;53.42;53358.63;5070033;28;20021;-67
2022/05/06 06:30:40;;;;;;;13.95;6.88;;;;;;;-144.47;53.66;53368.56;5064959;28;20028;-66
2022/05/06 06:33:07;;;;;;;12.18;6.53;;;;;;;-144.47;53.40;53336.78;5049200;28;20020;-68
2022/05/06 06:35:41;;;;;;;24.70;7.35;;;;;;;-144.47;53.11;53366.56;5068916;28;20138;-78
2022/05/06 06:38:07;;;;;;;16.88;7.22;;;;;;;-144.47;52.95;53326.84;5065270;28;20032;-70
2022/05/06 06:40:33;;;;;;;18.05;7.35;;;;;;;-144.47;53.21;53332.81;5058221;28;20034;-70
2022/05/06 06:43:04;;;;;;;23.55;7.75;;;;;;;-144.47;53.04;53314.91;5069746;28;20028;-71
2022/05/06 06:45:29;;;;;;;33.70;7.55;;;;;;;-144.47;52.90;53342.72;5070356;28;20028;-69
2022/05/06 06:47:55;;;;;;;25.55;7.47;;;;;;;-144.47;52.69;53289.09;5051748;28;20024;-68
2022/05/06 06:50:20;;;;;;;15.43;7.05;;;;;;;-144.47;52.69;53368.56;5051110;28;20031;-70
2022/05/06 06:52:46;;;;;;;14.18;6.50;;;;;;;-144.47;52.74;53301.03;5080186;28;20092;-72
2022/05/06 06:55:11;;;;;;;13.93;6.63;;;;;;;-144.47;52.53;53295.06;5069141;28;20039;-70
2022/05/06 06:57:37;;;;;;;16.50;7.65;;;;;;;-144.47;52.21;53342.72;5080690;28;20024;-67
2022/05/06 07:00:03;;;;;;;19.17;6.90;;;;;;;-144.47;52.30;53305.00;5064571;28;20505;-71
2022/05/06 07:02:28;;;;;;;16.10;6.97;;;;;;;-144.47;51.97;53332.81;5059990;28;20080;-70
2022/05/06 07:04:54;;;;;;;15.32;7.95;;;;;;;-144.47;52.01;53301.03;5056938;28;20032;-67
2022/05/06 07:12:47;;;;;;;16.20;7.15;;;;;;;-144.47;52.12;53344.72;5060631;28;20454;-70
2022/05/06 07:15:12;;;;;;;14.60;6.00;;;;;;;-144.47;51.85;53322.88;5068473;28;20497;-69
2022/05/06 07:17:38;;;;;;;17.48;7.72;;;;;;;-144.47;52.07;53350.69;5068330;28;20030;-68
2022/05/06 07:20:04;;;;;;;14.82;6.25;;;;;;;-144.47;51.54;53324.84;5068401;28;20478;-69
2022/05/06 07:22:29;;;;;;;15.85;6.68;;;;;;;-144.47;51.51;53295.06;5048014;28;20029;-69
2022/05/06 07:24:54;;;;;;;12.65;6.25;;;;;;;-144.47;51.01;53277.19;5049670;28;20100;-71
2022/05/06 07:27:21;;;;;;;18.85;6.60;;;;;;;-144.47;50.93;53326.84;5035127;28;20399;-68
2022/05/06 07:29:46;;;;;;;16.67;6.25;;;;;;;-144.47;50.82;53336.78;5057453;28;20016;-72
2022/05/06 07:32:11;;;;;;;14.98;6.68;;;;;;;-144.47;51.07;53308.97;5053333;28;20036;-71
2022/05/06 07:34:37;;;;;;;17.00;5.78;;;;;;;-144.47;50.93;53314.91;5080120;22;20028;-70
2022/05/06 07:37:02;;;;;;;19.50;6.25;;;;;;;-144.47;49.54;53293.06;5061183;28;20043;-72
2022/05/06 07:39:28;;;;;;;14.63;5.57;;;;;;;-144.47;49.01;53312.94;5062022;28;20028;-72
2022/05/06 07:41:53;;;;;;;17.13;5.63;;;;;;;-144.47;48.76;53291.09;5061613;28;20059;-69
2022/05/06 07:44:18;;;;;;;13.50;5.32;;;;;;;-144.47;48.24;53299.03;5063123;28;20070;-70
2022/05/06 07:46:44;;;;;;;10.82;5.47;;;;;;;-144.47;48.56;53308.97;5061115;28;20016;-71
2022/05/06 07:49:09;;;;;;;15.95;5.75;;;;;;;-144.47;47.93;53289.09;5062171;28;20028;-70
2022/05/06 07:51:34;;;;;;;9.68;4.90;;;;;;;-144.47;47.80;53285.13;5060565;28;20035;-71
2022/05/06 07:54:00;;;;;;;12.05;4.72;;;;;;;-144.47;47.96;53310.94;5062977;28;20043;-70
2022/05/06 07:56:29;;;;;;;16.33;5.25;;;;;;;-144.47;48.03;53299.03;5062294;28;20033;-71
2022/05/06 07:58:54;;;;;;;11.32;4.78;;;;;;;-144.47;47.49;53310.94;5061505;28;20154;-71
2022/05/06 08:04:32;;;;;;;10.43;3.83;;;;;;;-144.47;46.85;53283.13;5058996;28;20041;-68
2022/05/06 08:06:53;;;;;;;8.93;4.75;;;;;;;-144.47;46.47;53297.03;5060414;28;20506;-71
2022/05/06 08:09:20;;;;;;;12.88;4.70;;;;;;;-144.47;46.87;53301.03;5057922;28;20028;-71
2022/05/06 08:11:46;;;;;;;9.82;4.35;;;;;;;-144.47;46.85;53269.22;5060904;28;20074;-70
2022/05/06 08:14:12;;;;;;;13.25;4.45;;;;;;;-144.47;46.35;53279.16;5065074;28;20479;-70
2022/05/06 08:16:37;;;;;;;9.40;4.18;;;;;;;-144.47;46.36;53279.16;5068435;28;20037;-69
2022/05/06 08:19:03;;;;;;;14.05;4.25;;;;;;;-144.47;45.83;53253.34;5064365;28;20086;-70
2022/05/06 08:21:29;;;;;;;8.95;3.90;;;;;;;-144.47;45.51;53287.13;5060105;28;20038;-69
2022/05/06 08:23:54;;;;;;;8.98;4.07;;;;;;;-144.47;45.35;53301.03;5059019;28;20083;-72
2022/05/06 08:26:20;;;;;;;11.27;4.13;;;;;;;-144.47;45.03;53277.19;5069347;28;20522;-69
2022/05/06 08:28:45;;;;;;;10.00;3.95;;;;;;;-144.47;44.95;53279.16;5059087;28;20024;-71
2022/05/06 08:31:10;;;;;;;12.40;4.05;;;;;;;-144.47;44.81;53231.50;5070259;28;20025;-70
2022/05/06 08:33:36;;;;;;;22.73;5.00;;;;;;;-144.47;45.16;53293.06;5071698;28;20077;-71
2022/05/06 08:36:02;;;;;;;16.73;4.35;;;;;;;-144.47;44.00;53253.34;5066108;28;20028;-70
2022/05/06 08:38:27;;;;;;;8.93;3.72;;;;;;;-144.47;44.08;53269.22;5067116;28;20475;-74
2022/05/06 08:40:53;;;;;;;11.75;4.32;;;;;;;-144.47;44.53;53318.91;5070112;28;20095;-68
2022/05/06 08:43:19;;;;;;;13.00;4.30;;;;;;;-144.47;44.13;53245.41;5066695;28;20031;-72
2022/05/06 08:51:13;;;;;;;11.88;4.60;;;;;;;-144.47;44.07;53263.28;5064072;28;20043;-71
2022/05/06 08:53:40;;;;;;;11.40;4.57;;;;;;;-144.47;44.15;53291.09;5066118;28;20122;-71
2022/05/06 08:56:06;;;;;;;8.18;4.38;;;;;;;-144.47;44.51;53277.19;5070836;28;20045;-70
2022/05/06 08:58:42;;;;;;;12.52;5.25;;;;;;;-144.47;43.98;53287.13;5072347;28;20070;-81
2022/05/06 09:01:12;;;;;;;20.20;4.85;;;;;;;-144.47;44.02;53229.50;5068742;28;20063;-75
2022/05/06 09:03:41;;;;;;;10.07;4.53;;;;;;;-144.47;43.29;53275.19;5062781;28;20052;-75
2022/05/06 09:06:18;;;;;;;10.55;4.10;;;;;;;-144.47;42.94;53243.41;5062548;28;20499;-68
2022/05/06 09:08:44;;;;;;;11.05;4.38;;;;;;;-144.47;42.68;53245.41;5063254;28;20050;-70
2022/05/06 09:11:11;;;;;;;11.48;4.90;;;;;;;-144.47;42.83;53239.44;5059664;28;20533;-70
2022/05/06 09:13:37;;;;;;;11.35;4.72;;;;;;;-144.47;42.05;53221.56;5063858;28;20251;-68
2022/05/06 09:19:19;;;;;;;8.85;4.90;;;;;;;-144.47;42.00;53253.34;5061976;28;20505;-69
2022/05/06 09:22:17;;;;;;;11.07;4.25;;;;;;;-144.47;41.86;53203.69;5055544;28;20427;-72
2022/05/06 09:24:47;;;;;;;12.07;4.27;;;;;;;-144.47;41.26;53269.22;5059446;28;20043;-71
2022/05/06 09:27:16;;;;;;;13.73;4.22;;;;;;;-144.47;40.84;53243.41;5071898;28;20017;-70
2022/05/06 09:29:42;;;;;;;9.55;4.88;;;;;;;-144.47;41.16;53243.41;5070898;28;20048;-71
2022/05/06 09:32:16;;;;;;;10.13;4.25;;;;;;;-144.47;40.89;53257.31;5070930;28;20490;-69
2022/05/06 09:34:43;;;;;;;9.88;4.22;;;;;;;-144.47;40.98;53217.59;5069799;28;20502;-70
2022/05/06 09:37:08;;;;;;;8.98;4.00;;;;;;;-144.47;41.15;53223.56;5062545;28;20021;-71
2022/05/06 09:39:38;;;;;;;9.48;3.55;;;;;;;-144.47;40.63;53251.34;5054793;28;20112;-71
2022/05/06 09:42:04;;;;;;;8.25;3.65;;;;;;;-144.47;41.50;53261.28;5071210;28;20051;-72
2022/05/06 09:44:30;;;;;;;14.88;3.85;;;;;;;-144.47;41.41;53251.34;5068497;28;20174;-68
2022/05/06 09:47:15;;;;;;;9.70;3.97;;;;;;;-144.47;41.06;53249.38;5065387;28;20045;-70
2022/05/06 09:49:42;;;;;;;12.57;4.13;;;;;;;-144.47;41.35;53243.41;5061905;28;20135;-69
2022/05/06 09:52:16;;;;;;;8.68;3.30;;;;;;;-144.47;41.52;53215.59;5065723;28;20056;-67
2022/05/06 09:54:43;;;;;;;10.45;4.10;;;;;;;-144.47;40.78;53245.41;5066143;28;20024;-70
2022/05/06 09:57:13;;;;;;;13.02;3.70;;;;;;;-144.47;40.71;53247.38;5076189;28;20019;-73
2022/05/06 09:59:39;;;;;;;8.68;3.50;;;;;;;-144.47;41.19;53249.38;5073006;28;20449;-71
2022/05/06 10:02:05;;;;;;;8.70;3.30;;;;;;;-144.47;40.99;53219.56;5066532;28;20025;-72
2022/05/06 10:04:31;;;;;;;11.10;3.53;;;;;;;-144.47;40.98;53245.41;5065270;28;20142;-69
2022/05/06 10:07:00;;;;;;;9.43;3.38;;;;;;;-144.47;40.23;53249.38;5067335;28;20170;-71
2022/05/06 10:09:26;;;;;;;;;;;;;;;-144.47;40.03;53239.44;5067158;28;20047;-70
2022/05/06 10:11:54;;;;;;;10.93;3.35;;;;;;;-144.47;39.93;53229.50;5069496;28;19953;-71
2022/05/06 10:14:20;;;;;;;15.50;3.42;;;;;;;-144.47;40.00;53259.31;5069813;28;20031;-71
2022/05/06 10:16:47;;;;;;;6.03;3.05;;;;;;;-144.47;39.74;53219.56;5069102;28;20120;-71
2022/05/06 10:19:45;;;;;;;7.25;3.00;;;;;;;-144.47;39.69;53225.53;5069185;28;20017;-71
2022/05/06 10:22:11;;;;;;;7.25;3.00;;;;;;;-144.47;39.37;53253.34;5061638;28;20218;-70
2022/05/06 10:24:49;;;;;;;7.35;3.00;;;;;;;-144.47;38.89;53253.34;5068366;28;20483;-69
2022/05/06 10:27:23;;;;;;;9.20;2.88;;;;;;;-144.47;37.90;53231.50;5063322;28;20022;-71
2022/05/06 10:32:52;;;;;;;6.90;2.50;;;;;;;-144.47;37.50;53213.63;5066193;28;20101;-69
2022/05/06 10:35:17;;;;;;;9.68;3.72;;;;;;;-144.47;38.96;53199.72;5069024;28;20559;-71
2022/05/06 10:37:44;;;;;;;8.50;3.63;;;;;;;-144.47;39.65;53249.38;5068393;28;20020;-70
2022/05/06 10:40:22;;;;;;;10.63;3.45;;;;;;;-144.47;40.00;53253.34;5069574;28;20036;-70
2022/05/06 10:42:47;;;;;;;13.95;3.88;;;;;;;-144.47;40.09;53249.38;5062301;28;20047;-69
2022/05/06 10:45:25;;;;;;;7.32;3.03;;;;;;;-144.47;39.88;53221.56;5067059;28;20039;-68
2022/05/06 10:47:50;;;;;;;7.23;3.23;;;;;;;-144.47;39.74;53239.44;5068448;28;20040;-69
2022/05/06 10:50:19;;;;;;;8.95;3.40;;;;;;;-144.47;38.59;53233.47;5062496;28;20117;-69
2022/05/06 10:52:45;;;;;;;7.25;2.83;;;;;;;-144.47;38.96;53158.00;5060424;28;20056;-70
2022/05/06 10:55:13;;;;;;;5.72;2.25;;;;;;;-144.47;38.94;53239.44;5061903;28;20039;-69
2022/05/06 10:57:55;;;;;;;5.22;2.40;;;;;;;-144.47;38.86;53229.50;5063071;28;20017;-72
2022/05/06 11:00:22;;;;;;;6.10;1.90;;;;;;;-144.47;38.67;53211.63;5067662;28;20504;-70
2022/05/06 11:02:49;;;;;;;12.73;2.38;;;;;;;-144.47;38.52;53243.41;5068511;28;20032;-69
2022/05/06 11:05:16;;;;;;;10.98;2.33;;;;;;;-144.47;38.05;53269.22;5064703;28;20020;-69
2022/05/06 11:07:43;;;;;;;5.05;1.77;;;;;;;-144.47;37.42;53243.41;5068643;28;20016;-67
2022/05/06 11:10:11;;;;;;;4.82;1.67;;;;;;;-144.47;36.96;53237.44;5066471;28;20020;-70
2022/05/06 11:12:43;;;;;;;7.33;2.20;;;;;;;-144.47;37.08;53195.75;5068168;28;20387;-71
2022/05/06 11:15:15;;;;;;;13.32;2.60;;;;;;;-144.47;37.50;53235.47;5065987;28;20029;-73
2022/05/06 11:17:42;;;;;;;9.35;2.60;;;;;;;-144.47;37.54;53197.72;5064794;28;20528;-69
2022/05/06 11:20:15;;;;;;;7.47;2.80;;;;;;;-144.47;37.33;53177.88;5058444;28;20036;-70
2022/05/06 11:22:55;;;;;;;6.85;2.92;;;;;;;-144.47;36.95;53247.38;5064073;28;20056;-70
2022/05/06 11:25:24;;;;;;;14.88;2.63;;;;;;;-144.47;36.94;53217.59;5066552;28;20082;-68
2022/05/06 11:27:51;;;;;;;6.68;2.42;;;;;;;-144.47;36.28;53205.66;5063845;28;20024;-70
2022/05/06 11:30:18;;;;;;;6.50;2.33;;;;;;;-144.47;36.41;53215.59;5065631;28;20549;-69
2022/05/06 11:32:49;;;;;;;5.47;2.10;;;;;;;-144.47;36.25;53213.63;5068449;28;20024;-69
2022/05/06 11:35:20;;;;;;;7.20;1.90;;;;;;;-144.47;35.78;53239.44;5067664;28;20024;-69
2022/05/06 11:37:46;;;;;;;6.78;2.00;;;;;;;-144.47;35.52;53223.56;5068625;28;20539;-69
2022/05/06 11:42:51;;;;;;;6.88;2.30;;;;;;;-144.47;34.99;53177.88;5067641;28;20589;-69
2022/05/06 11:48:07;;;;;;;6.80;1.92;;;;;;;-144.47;34.23;53213.63;5067704;28;20409;-71
2022/05/06 11:50:33;;;;;;;13.43;2.40;;;;;;;-144.47;34.63;53205.66;5068176;28;20059;-70
2022/05/06 11:53:01;;;;;;;5.60;1.73;;;;;;;-144.47;33.45;53167.94;5068992;28;20032;-71